Time;durP1;ratioP1;P1;durP2;ratioP2;P2;SDS_P1;SDS_P2;PMS_P1;PMS_P2;Temp;Humidity;BMP_temperature;BMP_pressure;BME280_temperature;BME280_humidity;BME280_pressure;Samples;Min_cycle;Max_cycle;Signal;HPM_P1;HPM_P2
2023/08/16 00:02:45;;;;;;;;;;;23.90;62.40;;;;;;8428684;28;19912;-48
2023/08/16 00:06:46;;;;;;;;;;;23.90;62.40;;;;;;8428611;28;19916;-49
2023/08/16 00:10:46;;;;;;;;;;;23.80;62.30;;;;;;8428383;28;19913;-48
2023/08/16 00:14:47;;;;;;;;;;;23.90;62.40;;;;;;8427040;28;20373;-48
2023/08/16 00:18:47;;;;;;;;;;;23.80;62.30;;;;;;8428191;28;19913;-49
2023/08/16 00:22:49;;;;;;;;;;;23.80;62.30;;;;;;8429072;28;19912;-49
2023/08/16 00:26:50;;;;;;;;;;;23.80;62.30;;;;;;8426984;28;19915;-49
2023/08/16 00:30:51;;;;;;;;;;;23.80;62.30;;;;;;8427912;28;19951;-49
2023/08/16 00:34:51;;;;;;;;;;;23.80;62.30;;;;;;8427880;28;19931;-49
2023/08/16 00:38:52;;;;;;;;;;;23.80;62.30;;;;;;8427671;28;19927;-49
2023/08/16 00:42:52;;;;;;;;;;;23.80;62.30;;;;;;8427704;28;20301;-49
2023/08/16 00:46:53;;;;;;;;;;;23.80;62.40;;;;;;8427513;28;19919;-49
2023/08/16 00:50:54;;;;;;;;;;;23.80;62.40;;;;;;8427086;28;19915;-51
2023/08/16 00:54:55;;;;;;;;;;;23.80;62.40;;;;;;8427863;28;19916;-49
2023/08/16 00:58:56;;;;;;;;;;;23.80;62.40;;;;;;8427275;28;19998;-50
2023/08/16 01:02:57;;;;;;;;;;;23.80;62.40;;;;;;8427392;28;19969;-50
2023/08/16 01:06:57;;;;;;;;;;;23.80;62.40;;;;;;8427742;28;19955;-49
2023/08/16 01:11:18;;;;;;;;;;;23.80;62.40;;;;;;8427622;28;19920;-52
2023/08/16 01:15:22;;;;;;;;;;;23.80;62.40;;;;;;8423022;28;19927;-48
2023/08/16 01:19:29;;;;;;;;;;;23.80;62.40;;;;;;8431307;28;20289;-49
2023/08/16 01:23:48;;;;;;;;;;;23.80;62.40;;;;;;8426924;28;20296;-48
2023/08/16 01:27:51;;;;;;;;;;;23.80;62.40;;;;;;8427299;28;20258;-50
2023/08/16 01:31:52;;;;;;;;;;;23.80;62.40;;;;;;8427296;28;19935;-48
2023/08/16 01:35:52;;;;;;;;;;;23.80;62.30;;;;;;8426788;28;19916;-49
2023/08/16 01:39:53;;;;;;;;;;;23.80;62.30;;;;;;8426590;28;19919;-50
2023/08/16 01:43:55;;;;;;;;;;;23.80;62.30;;;;;;8426650;28;19917;-49
2023/08/16 01:47:57;;;;;;;;;;;23.80;62.30;;;;;;8426443;28;19991;-51
2023/08/16 01:51:57;;;;;;;;;;;23.80;62.30;;;;;;8426343;28;19981;-51
2023/08/16 01:55:58;;;;;;;;;;;23.70;62.30;;;;;;8426964;28;19923;-50
2023/08/16 01:59:58;;;;;;;;;;;23.80;62.40;;;;;;8426235;28;19912;-50
2023/08/16 02:03:59;;;;;;;;;;;23.80;62.40;;;;;;8431080;28;19959;-49
2023/08/16 02:07:59;;;;;;;;;;;23.70;62.30;;;;;;8432683;28;19912;-49
2023/08/16 02:12:00;;;;;;;;;;;23.70;62.30;;;;;;8432597;28;19919;-49
2023/08/16 02:16:01;;;;;;;;;;;23.70;62.30;;;;;;8431624;28;20553;-48
2023/08/16 02:20:02;;;;;;;;;;;23.80;62.40;;;;;;8432489;28;19943;-50
2023/08/16 02:24:03;;;;;;;;;;;23.70;62.30;;;;;;8432058;28;19965;-49
2023/08/16 02:28:03;;;;;;;;;;;23.70;62.30;;;;;;8432685;27;19913;-50
2023/08/16 02:32:04;;;;;;;;;;;23.70;62.30;;;;;;8464633;27;19947;-50
2023/08/16 02:36:04;;;;;;;;;;;23.70;62.30;;;;;;8432234;28;20326;-49
2023/08/16 02:40:05;;;;;;;;;;;23.80;62.30;;;;;;8431641;28;20010;-51
2023/08/16 02:44:06;;;;;;;;;;;23.70;62.30;;;;;;8431494;28;19983;-49
2023/08/16 02:48:06;;;;;;;;;;;23.70;62.30;;;;;;8431680;28;19960;-51
2023/08/16 02:52:07;;;;;;;;;;;23.70;62.30;;;;;;8431261;28;19913;-51
2023/08/16 02:56:07;;;;;;;;;;;23.70;62.30;;;;;;8431961;27;19920;-49
2023/08/16 03:00:09;;;;;;;;;;;23.80;62.30;;;;;;8430668;28;19959;-51
2023/08/16 03:04:10;;;;;;;;;;;23.70;62.30;;;;;;8430894;28;19913;-51
2023/08/16 03:08:10;;;;;;;;;;;23.70;62.30;;;;;;8429436;28;19919;-49
2023/08/16 03:12:11;;;;;;;;;;;23.70;62.30;;;;;;8430275;28;20325;-50
2023/08/16 03:16:11;;;;;;;;;;;23.70;62.30;;;;;;8446972;28;19923;-50
2023/08/16 03:20:12;;;;;;;;;;;23.70;62.30;;;;;;8464079;28;19912;-51
2023/08/16 03:24:13;;;;;;;;;;;23.70;62.30;;;;;;8463743;28;19969;-49
2023/08/16 03:28:13;;;;;;;;;;;23.70;62.30;;;;;;8464266;27;19912;-50
2023/08/16 03:32:14;;;;;;;;;;;23.70;62.30;;;;;;8463727;28;20296;-50
2023/08/16 03:36:14;;;;;;;;;;;23.70;62.30;;;;;;8463391;28;19997;-49
2023/08/16 03:40:15;;;;;;;;;;;23.70;62.30;;;;;;8464397;28;19919;-50
2023/08/16 03:44:15;;;;;;;;;;;23.70;62.30;;;;;;8444927;28;19912;-50
2023/08/16 03:48:16;;;;;;;;;;;23.70;62.30;;;;;;8463959;28;19934;-50
2023/08/16 03:52:17;;;;;;;;;;;23.70;62.20;;;;;;8462944;28;19912;-48
2023/08/16 03:56:17;;;;;;;;;;;23.70;62.30;;;;;;8445128;27;19959;-51
2023/08/16 04:00:18;;;;;;;;;;;23.70;62.20;;;;;;8462569;28;19919;-49
2023/08/16 04:04:18;;;;;;;;;;;23.70;62.30;;;;;;8462523;28;19947;-51
2023/08/16 04:08:19;;;;;;;;;;;23.70;62.30;;;;;;8462271;28;20051;-50
2023/08/16 04:12:19;;;;;;;;;;;23.70;62.20;;;;;;8462965;28;19912;-49
2023/08/16 04:16:20;;;;;;;;;;;23.70;62.30;;;;;;8461946;28;19938;-51
2023/08/16 04:20:20;;;;;;;;;;;23.70;62.20;;;;;;8461849;28;20052;-48
2023/08/16 04:24:21;;;;;;;;;;;23.70;62.30;;;;;;8461267;28;19908;-52
2023/08/16 04:28:21;;;;;;;;;;;23.70;62.30;;;;;;8462243;27;19912;-49
2023/08/16 04:32:22;;;;;;;;;;;23.70;62.30;;;;;;8462451;28;19919;-48
2023/08/16 04:36:22;;;;;;;;;;;23.70;62.30;;;;;;8462008;28;19916;-49
2023/08/16 04:40:23;;;;;;;;;;;23.70;62.30;;;;;;8461483;28;19919;-49
2023/08/16 04:44:23;;;;;;;;;;;23.70;62.20;;;;;;8461110;28;20344;-52
2023/08/16 04:48:24;;;;;;;;;;;23.70;63.00;;;;;;8461243;28;19912;-49
2023/08/16 04:52:24;;;;;;;;;;;23.70;62.30;;;;;;8460832;28;19919;-49
2023/08/16 04:56:25;;;;;;;;;;;23.70;62.20;;;;;;8461556;27;20382;-49
2023/08/16 05:00:25;;;;;;;;;;;23.70;62.30;;;;;;8460909;28;19973;-48
2023/08/16 05:04:26;;;;;;;;;;;23.70;62.20;;;;;;8460698;28;19924;-51
2023/08/16 05:08:26;;;;;;;;;;;23.70;62.20;;;;;;8460848;28;19964;-49
2023/08/16 05:12:27;;;;;;;;;;;23.70;62.20;;;;;;8460822;28;20418;-49
2023/08/16 05:16:27;;;;;;;;;;;23.70;62.20;;;;;;8478092;28;19924;-52
2023/08/16 05:20:28;;;;;;;;;;;23.70;62.20;;;;;;8494558;28;19912;-49
2023/08/16 05:24:28;;;;;;;;;;;23.70;62.20;;;;;;8494928;27;20548;-51
2023/08/16 05:28:29;;;;;;;;;;;23.70;62.20;;;;;;8494548;28;19911;-50
2023/08/16 05:32:30;;;;;;;;;;;23.70;62.20;;;;;;8494214;28;20002;-49
2023/08/16 05:36:30;;;;;;;;;;;23.70;62.30;;;;;;8495199;27;20083;-49
2023/08/16 05:40:31;;;;;;;;;;;23.70;62.20;;;;;;8501183;27;19911;-50
2023/08/16 05:44:31;;;;;;;;;;;23.70;62.30;;;;;;8500911;27;19911;-51
2023/08/16 05:48:32;;;;;;;;;;;23.70;62.30;;;;;;8501869;27;19911;-51
2023/08/16 05:52:32;;;;;;;;;;;23.70;62.30;;;;;;8500595;27;19922;-49
2023/08/16 05:56:33;;;;;;;;;;;23.70;62.20;;;;;;8500815;27;19916;-51
2023/08/16 06:00:34;;;;;;;;;;;23.60;62.20;;;;;;8500421;27;19911;-49
2023/08/16 06:04:34;;;;;;;;;;;23.70;62.20;;;;;;8500380;27;19911;-50
2023/08/16 06:08:35;;;;;;;;;;;23.70;62.20;;;;;;8500381;27;20014;-50
2023/08/16 06:12:35;;;;;;;;;;;23.70;62.20;;;;;;8481650;27;19923;-49
2023/08/16 06:16:36;;;;;;;;;;;23.70;62.20;;;;;;8499649;27;19935;-51
2023/08/16 06:20:36;;;;;;;;;;;23.70;62.20;;;;;;8499872;27;20386;-49
2023/08/16 06:24:37;;;;;;;;;;;23.70;62.20;;;;;;8499900;27;19918;-50
2023/08/16 06:28:38;;;;;;;;;;;23.70;62.20;;;;;;8499326;27;19911;-48
2023/08/16 06:32:38;;;;;;;;;;;23.70;62.20;;;;;;8499569;27;19918;-51
2023/08/16 06:36:40;;;;;;;;;;;23.70;62.20;;;;;;8499455;27;19915;-50
2023/08/16 06:40:41;;;;;;;;;;;23.70;62.20;;;;;;8499009;27;19937;-51
2023/08/16 06:44:41;;;;;;;;;;;23.70;62.20;;;;;;8499023;27;19911;-49
2023/08/16 06:48:42;;;;;;;;;;;23.70;62.20;;;;;;8498790;27;19908;-51
2023/08/16 06:52:42;;;;;;;;;;;23.70;62.20;;;;;;8498921;27;19918;-48
2023/08/16 06:56:43;;;;;;;;;;;23.70;62.20;;;;;;8499284;27;19922;-51
2023/08/16 07:00:45;;;;;;;;;;;23.70;62.20;;;;;;8498871;27;20253;-48
2023/08/16 07:04:46;;;;;;;;;;;23.70;62.20;;;;;;8498419;27;19912;-51
2023/08/16 07:08:46;;;;;;;;;;;23.70;62.20;;;;;;8498386;27;20003;-50
2023/08/16 07:12:47;;;;;;;;;;;23.70;63.00;;;;;;8498236;27;19961;-49
2023/08/16 07:16:47;;;;;;;;;;;23.70;62.20;;;;;;8498070;27;19949;-50
2023/08/16 07:20:48;;;;;;;;;;;23.70;62.20;;;;;;8497972;27;20291;-49
2023/08/16 07:24:48;;;;;;;;;;;23.70;62.20;;;;;;8498084;27;19911;-51
2023/08/16 07:28:49;;;;;;;;;;;23.70;62.90;;;;;;8497943;27;19998;-49
2023/08/16 07:32:49;;;;;;;;;;;23.70;62.10;;;;;;8497916;27;19915;-51
2023/08/16 07:36:50;;;;;;;;;;;23.70;62.10;;;;;;8497215;27;20353;-48
2023/08/16 07:40:51;;;;;;;;;;;23.70;62.10;;;;;;8497621;27;20014;-49
2023/08/16 07:44:51;;;;;;;;;;;23.70;62.10;;;;;;8497805;27;20364;-49
2023/08/16 07:48:52;;;;;;;;;;;23.70;62.10;;;;;;8478728;27;20583;-50
2023/08/16 07:52:52;;;;;;;;;;;23.70;62.10;;;;;;8497064;27;19960;-49
2023/08/16 07:56:53;;;;;;;;;;;23.70;62.10;;;;;;8497258;27;20056;-49
2023/08/16 08:00:54;;;;;;;;;;;23.70;62.10;;;;;;8495908;27;19914;-49
2023/08/16 08:04:55;;;;;;;;;;;23.70;62.10;;;;;;8496869;27;19918;-49
2023/08/16 08:08:55;;;;;;;;;;;23.70;62.10;;;;;;8496344;27;19911;-49
2023/08/16 08:12:56;;;;;;;;;;;23.60;62.10;;;;;;8496601;27;20288;-49
2023/08/16 08:16:56;;;;;;;;;;;23.70;62.20;;;;;;8495772;27;19982;-49
2023/08/16 08:20:59;;;;;;;;;;;23.70;62.10;;;;;;8496209;27;20460;-49
2023/08/16 08:25:00;;;;;;;;;;;23.60;62.10;;;;;;8496824;27;20269;-51
2023/08/16 08:29:00;;;;;;;;;;;23.70;62.10;;;;;;8496014;27;19907;-48
2023/08/16 08:33:01;;;;;;;;;;;23.70;62.10;;;;;;8495782;27;20010;-48
2023/08/16 08:37:02;;;;;;;;;;;23.70;62.10;;;;;;8495781;27;19919;-50
2023/08/16 08:41:02;;;;;;;;;;;23.70;62.10;;;;;;8495554;27;19919;-49
2023/08/16 08:45:03;;;;;;;;;;;23.70;62.10;;;;;;8495400;27;19960;-49
2023/08/16 08:49:04;;;;;;;;;;;23.70;62.10;;;;;;8477124;27;20361;-49
2023/08/16 08:53:05;;;;;;;;;;;23.70;62.10;;;;;;8495310;27;19963;-49
2023/08/16 08:57:05;;;;;;;;;;;23.70;62.10;;;;;;8495358;27;20011;-49
2023/08/16 09:01:07;;;;;;;;;;;23.70;62.10;;;;;;8495155;27;20387;-50
2023/08/16 09:05:09;;;;;;;;;;;23.70;62.10;;;;;;8494960;27;19911;-51
2023/08/16 09:09:11;;;;;;;;;;;23.70;62.00;;;;;;8495029;27;19959;-49
2023/08/16 09:13:11;;;;;;;;;;;23.70;62.10;;;;;;8494972;27;19915;-51
2023/08/16 09:17:12;;;;;;;;;;;23.70;62.10;;;;;;8494544;27;19976;-50
2023/08/16 09:21:14;;;;;;;;;;;23.70;62.10;;;;;;8500140;28;19912;-50
2023/08/16 09:25:14;;;;;;;;;;;23.70;62.10;;;;;;8495036;27;19912;-51
2023/08/16 09:29:17;;;;;;;;;;;23.60;62.00;;;;;;8510347;27;20429;-50
2023/08/16 09:33:22;;;;;;;;;;;23.70;62.10;;;;;;8495720;28;20357;-48
2023/08/16 09:37:24;;;;;;;;;;;23.70;62.10;;;;;;8495530;28;19962;-48
2023/08/16 09:41:24;;;;;;;;;;;23.70;62.10;;;;;;8494249;28;19912;-48
2023/08/16 09:45:25;;;;;;;;;;;23.70;62.10;;;;;;8494006;28;19919;-50
2023/08/16 09:49:26;;;;;;;;;;;23.60;62.00;;;;;;8493916;28;19911;-49
2023/08/16 09:53:27;;;;;;;;;;;23.70;62.10;;;;;;8493922;28;19962;-52
2023/08/16 09:57:28;;;;;;;;;;;23.70;62.10;;;;;;8494152;27;19911;-50
2023/08/16 10:01:30;;;;;;;;;;;23.70;62.10;;;;;;8493987;28;19914;-51
2023/08/16 10:05:31;;;;;;;;;;;23.70;62.10;;;;;;8493750;28;20011;-49
2023/08/16 10:09:34;;;;;;;;;;;23.70;62.00;;;;;;8494006;28;19907;-49
2023/08/16 10:13:35;;;;;;;;;;;23.70;62.10;;;;;;8493513;28;19942;-50
2023/08/16 10:17:37;;;;;;;;;;;23.70;62.10;;;;;;8493335;28;19934;-50
2023/08/16 10:21:39;;;;;;;;;;;23.70;62.10;;;;;;8493450;27;20326;-50
2023/08/16 10:25:46;;;;;;;;;;;23.60;62.10;;;;;;8499248;27;19957;-51
2023/08/16 10:29:48;;;;;;;;;;;23.70;62.10;;;;;;8499467;27;19915;-50
2023/08/16 10:33:50;;;;;;;;;;;23.60;62.10;;;;;;8499472;27;19995;-48
2023/08/16 10:37:53;;;;;;;;;;;23.60;62.10;;;;;;8499774;27;19989;-49
2023/08/16 10:42:02;;;;;;;;;;;23.70;62.10;;;;;;8498800;27;19907;-51
2023/08/16 10:46:02;;;;;;;;;;;23.70;62.90;;;;;;8498975;27;19907;-48
2023/08/16 10:50:03;;;;;;;;;;;23.60;62.00;;;;;;8498961;27;19912;-50
2023/08/16 10:54:04;;;;;;;;;;;23.70;62.10;;;;;;8498733;27;20359;-50
2023/08/16 10:58:04;;;;;;;;;;;23.70;62.10;;;;;;8498838;27;19923;-50
2023/08/16 11:02:14;;;;;;;;;;;23.70;62.10;;;;;;8498855;27;19937;-50
2023/08/16 11:06:15;;;;;;;;;;;23.60;62.00;;;;;;8498394;27;19907;-50
2023/08/16 11:10:16;;;;;;;;;;;23.70;62.10;;;;;;8498852;27;20006;-48
2023/08/16 11:14:17;;;;;;;;;;;23.70;62.00;;;;;;8498548;27;19915;-50
2023/08/16 11:18:31;;;;;;;;;;;23.60;62.00;;;;;;8497698;27;19924;-51
2023/08/16 11:22:31;;;;;;;;;;;23.70;62.00;;;;;;8497791;27;19919;-50
2023/08/16 11:26:38;;;;;;;;;;;23.60;62.00;;;;;;8498228;27;20010;-49
2023/08/16 11:30:40;;;;;;;;;;;23.60;62.00;;;;;;8497404;27;19977;-51
2023/08/16 11:34:41;;;;;;;;;;;23.70;62.00;;;;;;8497525;27;19911;-48
2023/08/16 11:38:43;;;;;;;;;;;23.70;62.10;;;;;;8497220;27;20392;-49
2023/08/16 11:42:44;;;;;;;;;;;23.70;62.10;;;;;;8497025;27;20380;-49
2023/08/16 11:46:47;;;;;;;;;;;23.70;62.10;;;;;;8478656;27;20405;-49
2023/08/16 11:50:48;;;;;;;;;;;23.70;62.10;;;;;;8496859;27;19956;-49
2023/08/16 11:55:05;;;;;;;;;;;23.70;62.00;;;;;;8497115;27;19943;-49
2023/08/16 11:59:05;;;;;;;;;;;23.70;62.00;;;;;;8496552;27;20257;-50
2023/08/16 12:03:07;;;;;;;;;;;23.60;62.00;;;;;;8496497;27;19915;-49
2023/08/16 12:07:10;;;;;;;;;;;23.70;62.00;;;;;;8497325;27;19995;-51
2023/08/16 12:11:11;;;;;;;;;;;23.70;62.00;;;;;;8496243;27;19953;-49
2023/08/16 12:15:11;;;;;;;;;;;23.70;61.90;;;;;;8495976;27;19924;-51
2023/08/16 12:19:17;;;;;;;;;;;23.70;61.90;;;;;;8477685;27;19912;-50
2023/08/16 12:23:17;;;;;;;;;;;23.70;61.90;;;;;;8496367;27;20357;-48
2023/08/16 12:27:18;;;;;;;;;;;23.70;62.00;;;;;;8495954;27;20287;-49
2023/08/16 12:31:18;;;;;;;;;;;23.70;61.90;;;;;;8495769;27;19918;-49
2023/08/16 12:35:19;;;;;;;;;;;23.70;61.80;;;;;;8495618;27;19916;-51
2023/08/16 12:39:19;;;;;;;;;;;23.70;61.80;;;;;;8495974;27;19912;-49
2023/08/16 12:43:20;;;;;;;;;;;23.70;61.80;;;;;;8495178;27;19911;-48
2023/08/16 12:47:20;;;;;;;;;;;23.70;61.80;;;;;;8495098;27;20402;-49
2023/08/16 12:51:21;;;;;;;;;;;23.70;61.80;;;;;;8495399;27;20048;-48
2023/08/16 12:55:21;;;;;;;;;;;23.70;61.80;;;;;;8495511;27;19915;-49
2023/08/16 12:59:22;;;;;;;;;;;23.70;61.80;;;;;;8495121;27;19918;-49
2023/08/16 13:03:23;;;;;;;;;;;23.70;61.80;;;;;;8495551;27;19907;-50
2023/08/16 13:07:23;;;;;;;;;;;23.70;61.80;;;;;;8495164;27;19935;-49
2023/08/16 13:11:24;;;;;;;;;;;23.70;61.80;;;;;;8494956;27;19911;-49
2023/08/16 13:15:24;;;;;;;;;;;23.70;61.80;;;;;;8494514;27;19953;-49
2023/08/16 13:19:25;;;;;;;;;;;23.70;61.70;;;;;;8494694;28;19911;-49
2023/08/16 13:23:27;;;;;;;;;;;23.70;61.70;;;;;;8494546;28;19911;-50
2023/08/16 13:27:28;;;;;;;;;;;23.70;61.70;;;;;;8494554;27;20283;-51
2023/08/16 13:31:28;;;;;;;;;;;23.70;61.70;;;;;;8494598;28;20006;-50
2023/08/16 13:35:29;;;;;;;;;;;23.70;61.60;;;;;;8494084;28;19926;-50
2023/08/16 13:39:30;;;;;;;;;;;23.70;61.60;;;;;;8494607;28;19911;-50
2023/08/16 13:43:31;;;;;;;;;;;23.70;61.60;;;;;;8494179;28;19912;-51
2023/08/16 13:47:31;;;;;;;;;;;23.70;61.50;;;;;;8494475;28;19956;-51
2023/08/16 13:51:32;;;;;;;;;;;23.70;61.50;;;;;;8494034;28;19947;-51
2023/08/16 13:55:32;;;;;;;;;;;23.70;61.50;;;;;;8495359;27;19920;-50
2023/08/16 13:59:33;;;;;;;;;;;23.70;61.50;;;;;;8497810;27;19918;-49
2023/08/16 14:03:34;;;;;;;;;;;23.70;61.50;;;;;;8500563;27;20002;-49
2023/08/16 14:07:35;;;;;;;;;;;23.80;61.60;;;;;;8500377;27;20060;-51
2023/08/16 14:11:35;;;;;;;;;;;23.70;61.60;;;;;;8500416;27;20303;-49
2023/08/16 14:15:36;;;;;;;;;;;23.70;61.50;;;;;;8499767;27;19947;-51
2023/08/16 14:19:36;;;;;;;;;;;23.70;61.60;;;;;;8500345;27;19929;-50
2023/08/16 14:23:37;;;;;;;;;;;23.80;61.60;;;;;;8499926;27;20010;-51
2023/08/16 14:27:37;;;;;;;;;;;23.70;61.50;;;;;;8505140;27;19916;-50
2023/08/16 14:31:38;;;;;;;;;;;23.80;61.60;;;;;;8499868;27;19912;-50
2023/08/16 14:35:39;;;;;;;;;;;23.70;61.50;;;;;;8499375;27;19916;-51
2023/08/16 14:39:40;;;;;;;;;;;23.80;61.50;;;;;;8499384;27;19907;-49
2023/08/16 14:43:40;;;;;;;;;;;23.80;61.50;;;;;;8498931;27;19911;-52
2023/08/16 14:47:41;;;;;;;;;;;23.80;61.50;;;;;;8499137;27;19919;-49
2023/08/16 14:51:41;;;;;;;;;;;23.80;61.50;;;;;;8499021;27;19908;-51
2023/08/16 14:55:42;;;;;;;;;;;23.70;61.50;;;;;;8498892;27;19911;-50
2023/08/16 14:59:42;;;;;;;;;;;23.80;61.50;;;;;;8498790;27;19912;-50
2023/08/16 15:03:43;;;;;;;;;;;23.80;61.50;;;;;;8498815;27;19911;-50
2023/08/16 15:07:44;;;;;;;;;;;23.70;61.50;;;;;;8498434;27;19912;-49
2023/08/16 15:11:44;;;;;;;;;;;23.80;61.50;;;;;;8497959;27;19938;-49
2023/08/16 15:15:45;;;;;;;;;;;23.80;61.50;;;;;;8497898;27;19931;-50
2023/08/16 15:19:45;;;;;;;;;;;23.70;62.30;;;;;;8497916;27;19907;-48
2023/08/16 15:23:46;;;;;;;;;;;23.70;61.50;;;;;;8497878;27;20396;-50
2023/08/16 15:27:46;;;;;;;;;;;23.70;61.50;;;;;;8498020;27;19988;-51
2023/08/16 15:31:47;;;;;;;;;;;23.70;61.50;;;;;;8497757;27;19916;-50
2023/08/16 15:35:47;;;;;;;;;;;23.80;61.60;;;;;;8497520;27;20439;-49
2023/08/16 15:39:48;;;;;;;;;;;23.70;61.50;;;;;;8497305;27;19911;-50
2023/08/16 15:43:48;;;;;;;;;;;23.70;61.50;;;;;;8497247;27;19935;-50
2023/08/16 15:47:49;;;;;;;;;;;23.80;61.60;;;;;;8497273;27;19919;-50
2023/08/16 15:51:49;;;;;;;;;;;23.70;61.50;;;;;;8496863;27;19912;-51
2023/08/16 15:55:53;;;;;;;;;;;23.70;61.50;;;;;;8497279;27;19968;-50
2023/08/16 15:59:54;;;;;;;;;;;23.80;61.60;;;;;;8496716;27;20584;-51
2023/08/16 16:03:55;;;;;;;;;;;23.80;61.70;;;;;;8496473;27;19918;-50
2023/08/16 16:07:55;;;;;;;;;;;23.80;61.60;;;;;;8497155;27;19912;-51
2023/08/16 16:11:56;;;;;;;;;;;23.80;61.60;;;;;;8496225;27;19919;-50
2023/08/16 16:15:56;;;;;;;;;;;23.80;61.60;;;;;;8512251;27;20380;-51
2023/08/16 16:19:57;;;;;;;;;;;23.70;61.50;;;;;;8495674;27;19916;-49
2023/08/16 16:23:57;;;;;;;;;;;23.70;61.50;;;;;;8495836;27;19919;-50
2023/08/16 16:27:58;;;;;;;;;;;23.70;61.50;;;;;;8496094;27;19962;-49
2023/08/16 16:31:59;;;;;;;;;;;23.70;61.50;;;;;;8495861;27;20427;-48
2023/08/16 16:35:59;;;;;;;;;;;23.70;61.50;;;;;;8495446;27;19923;-50
2023/08/16 16:40:00;;;;;;;;;;;23.70;61.50;;;;;;8495533;27;20010;-49
2023/08/16 16:44:00;;;;;;;;;;;23.70;61.50;;;;;;8495341;27;20299;-50
2023/08/16 16:48:01;;;;;;;;;;;23.80;61.60;;;;;;8495210;27;20014;-50
2023/08/16 16:52:01;;;;;;;;;;;23.70;61.50;;;;;;8495283;27;19911;-49
2023/08/16 16:56:02;;;;;;;;;;;23.80;61.60;;;;;;8495567;27;20018;-51
2023/08/16 17:00:05;;;;;;;;;;;23.70;61.50;;;;;;8494849;27;19912;-52
2023/08/16 17:04:06;;;;;;;;;;;23.80;61.60;;;;;;8495124;27;20002;-49
2023/08/16 17:08:07;;;;;;;;;;;23.70;61.50;;;;;;8510879;27;19922;-49
2023/08/16 17:12:07;;;;;;;;;;;23.70;61.50;;;;;;8494838;27;20384;-48
2023/08/16 17:16:14;;;;;;;;;;;23.70;61.60;;;;;;8495126;27;20273;-49
2023/08/16 17:20:14;;;;;;;;;;;23.70;61.50;;;;;;8496327;27;19912;-48
2023/08/16 17:24:15;;;;;;;;;;;23.70;61.50;;;;;;8498792;28;19918;-49
2023/08/16 17:28:16;;;;;;;;;;;23.70;61.50;;;;;;8494688;27;19915;-50
2023/08/16 17:32:16;;;;;;;;;;;23.70;61.50;;;;;;8496213;27;20002;-49
2023/08/16 17:36:17;;;;;;;;;;;23.70;61.50;;;;;;8483323;27;19959;-50
2023/08/16 17:40:17;;;;;;;;;;;23.70;61.50;;;;;;8501218;27;20277;-51
2023/08/16 17:44:18;;;;;;;;;;;23.70;61.50;;;;;;8501079;27;20288;-49
2023/08/16 17:48:18;;;;;;;;;;;23.80;61.60;;;;;;8501318;27;19920;-49
2023/08/16 17:52:19;;;;;;;;;;;23.70;61.50;;;;;;8501131;27;19907;-50
2023/08/16 17:56:19;;;;;;;;;;;23.80;61.60;;;;;;8516579;27;20092;-50
2023/08/16 18:00:20;;;;;;;;;;;23.80;61.50;;;;;;8501576;27;19918;-49
2023/08/16 18:04:21;;;;;;;;;;;23.70;61.50;;;;;;8482119;27;19986;-49
2023/08/16 18:08:21;;;;;;;;;;;23.80;61.60;;;;;;8500450;27;20014;-50
2023/08/16 18:12:23;;;;;;;;;;;23.70;61.50;;;;;;8500338;27;19912;-49
2023/08/16 18:16:24;;;;;;;;;;;23.70;61.50;;;;;;8499822;27;20481;-49
2023/08/16 18:20:24;;;;;;;;;;;23.70;61.50;;;;;;8500254;27;20373;-50
2023/08/16 18:24:25;;;;;;;;;;;23.70;61.50;;;;;;8500164;27;19911;-50
2023/08/16 18:28:25;;;;;;;;;;;23.70;61.50;;;;;;8499734;27;20010;-51
2023/08/16 18:32:26;;;;;;;;;;;23.70;61.50;;;;;;8499785;27;19914;-49
2023/08/16 18:36:26;;;;;;;;;;;23.70;61.50;;;;;;8499580;27;20398;-50
2023/08/16 18:40:27;;;;;;;;;;;23.70;61.50;;;;;;8499513;27;19916;-50
2023/08/16 18:44:28;;;;;;;;;;;23.70;61.60;;;;;;8498368;27;20375;-51
2023/08/16 18:48:28;;;;;;;;;;;23.80;61.60;;;;;;8499054;27;19916;-51
2023/08/16 18:52:29;;;;;;;;;;;23.70;61.60;;;;;;8480830;27;19911;-49
2023/08/16 18:56:29;;;;;;;;;;;23.70;61.60;;;;;;8498886;27;19923;-51
2023/08/16 19:00:30;;;;;;;;;;;23.70;61.60;;;;;;8498868;27;19911;-51
2023/08/16 19:04:30;;;;;;;;;;;23.70;61.60;;;;;;8498652;27;19915;-51
2023/08/16 19:08:31;;;;;;;;;;;23.70;61.60;;;;;;8498512;27;20048;-51
2023/08/16 19:12:32;;;;;;;;;;;23.70;61.60;;;;;;8498362;27;19911;-50
2023/08/16 19:16:33;;;;;;;;;;;23.70;61.60;;;;;;8497894;27;19923;-50
2023/08/16 19:20:35;;;;;;;;;;;23.70;61.60;;;;;;8498312;27;19922;-49
2023/08/16 19:24:35;;;;;;;;;;;23.70;61.60;;;;;;8498304;27;20351;-49
2023/08/16 19:28:36;;;;;;;;;;;23.70;61.60;;;;;;8497927;27;19970;-51
2023/08/16 19:32:36;;;;;;;;;;;23.70;61.60;;;;;;8497794;27;20284;-51
2023/08/16 19:36:39;;;;;;;;;;;23.70;61.60;;;;;;8497555;27;20144;-49
2023/08/16 19:40:39;;;;;;;;;;;23.70;61.60;;;;;;8497393;27;19912;-51
2023/08/16 19:44:40;;;;;;;;;;;23.70;61.60;;;;;;8497401;27;20008;-52
2023/08/16 19:48:40;;;;;;;;;;;23.70;61.70;;;;;;8497126;27;19933;-52
2023/08/16 19:52:41;;;;;;;;;;;23.70;61.60;;;;;;8496907;27;19911;-49
2023/08/16 19:56:42;;;;;;;;;;;23.70;61.70;;;;;;8495835;27;19968;-49
2023/08/16 20:00:42;;;;;;;;;;;23.70;61.60;;;;;;8496827;27;20463;-49
2023/08/16 20:04:43;;;;;;;;;;;23.70;61.60;;;;;;8496524;27;19911;-51
2023/08/16 20:08:43;;;;;;;;;;;23.70;61.70;;;;;;8496642;27;19956;-51
2023/08/16 20:12:44;;;;;;;;;;;23.70;61.60;;;;;;8496720;27;19999;-51
2023/08/16 20:16:45;;;;;;;;;;;23.70;61.70;;;;;;8496050;27;19927;-49
2023/08/16 20:20:45;;;;;;;;;;;23.70;61.70;;;;;;8495973;27;20321;-49
2023/08/16 20:24:49;;;;;;;;;;;23.70;61.70;;;;;;8496218;27;20307;-49
2023/08/16 20:28:49;;;;;;;;;;;23.70;61.70;;;;;;8495738;27;19947;-48
2023/08/16 20:32:50;;;;;;;;;;;23.70;61.60;;;;;;8495810;27;19961;-51
2023/08/16 20:36:50;;;;;;;;;;;23.70;61.70;;;;;;8495497;27;19923;-50
2023/08/16 20:40:51;;;;;;;;;;;23.70;61.60;;;;;;8495538;27;19911;-49
2023/08/16 20:44:52;;;;;;;;;;;23.70;61.70;;;;;;8495243;27;19911;-50
2023/08/16 20:48:53;;;;;;;;;;;23.70;61.70;;;;;;8495218;27;19950;-50
2023/08/16 20:52:54;;;;;;;;;;;23.70;61.60;;;;;;8495245;27;19907;-48
2023/08/16 20:56:54;;;;;;;;;;;23.70;61.60;;;;;;8495390;27;20018;-48
2023/08/16 21:00:55;;;;;;;;;;;23.70;61.70;;;;;;8494825;27;19919;-51
2023/08/16 21:04:55;;;;;;;;;;;23.70;61.70;;;;;;8495107;27;19956;-50
2023/08/16 21:08:56;;;;;;;;;;;23.70;61.70;;;;;;8494622;27;20402;-50
2023/08/16 21:12:56;;;;;;;;;;;23.70;61.70;;;;;;8494694;27;19960;-49
2023/08/16 21:16:57;;;;;;;;;;;23.70;61.70;;;;;;8494402;27;20375;-52
2023/08/16 21:21:00;;;;;;;;;;;23.70;61.70;;;;;;8494234;27;20295;-50
2023/08/16 21:25:01;;;;;;;;;;;23.70;61.70;;;;;;8494714;27;19997;-48
2023/08/16 21:29:02;;;;;;;;;;;23.70;61.70;;;;;;8494679;28;19919;-50
2023/08/16 21:33:02;;;;;;;;;;;23.70;61.70;;;;;;8494324;28;19918;-49
2023/08/16 21:37:03;;;;;;;;;;;23.70;61.70;;;;;;8494345;28;19916;-51
2023/08/16 21:41:03;;;;;;;;;;;23.70;61.70;;;;;;8494206;28;20403;-49
2023/08/16 21:45:04;;;;;;;;;;;23.70;61.70;;;;;;8494282;28;19912;-49
2023/08/16 21:49:05;;;;;;;;;;;23.70;61.70;;;;;;8494224;28;19919;-49
2023/08/16 21:53:05;;;;;;;;;;;23.70;61.70;;;;;;8494139;28;19912;-49
2023/08/16 21:57:06;;;;;;;;;;;23.70;61.70;;;;;;8494142;27;20285;-51
2023/08/16 22:01:06;;;;;;;;;;;23.70;61.60;;;;;;8494138;28;19912;-51
2023/08/16 22:05:07;;;;;;;;;;;23.70;61.60;;;;;;8475495;28;19912;-49
2023/08/16 22:09:09;;;;;;;;;;;23.70;61.60;;;;;;8493718;28;19921;-49
2023/08/16 22:13:10;;;;;;;;;;;23.70;61.70;;;;;;8494960;28;19915;-50
2023/08/16 22:17:11;;;;;;;;;;;23.70;61.60;;;;;;8493236;28;19924;-50
2023/08/16 22:21:11;;;;;;;;;;;23.70;61.70;;;;;;8479921;27;20372;-48
2023/08/16 22:25:12;;;;;;;;;;;23.70;61.70;;;;;;8500102;27;19912;-50
2023/08/16 22:29:12;;;;;;;;;;;23.70;61.60;;;;;;8499893;27;19907;-50
2023/08/16 22:33:13;;;;;;;;;;;23.70;61.70;;;;;;8499579;27;19918;-51
2023/08/16 22:37:13;;;;;;;;;;;23.70;61.70;;;;;;8499468;27;20176;-50
2023/08/16 22:41:14;;;;;;;;;;;23.70;62.50;;;;;;8499232;27;19915;-51
2023/08/16 22:45:14;;;;;;;;;;;23.70;61.70;;;;;;8499671;27;19911;-51
2023/08/16 22:49:15;;;;;;;;;;;23.70;61.70;;;;;;8499042;27;20434;-50
2023/08/16 22:53:15;;;;;;;;;;;23.70;61.70;;;;;;8498982;27;20002;-50
2023/08/16 22:57:16;;;;;;;;;;;23.70;61.70;;;;;;8499334;27;19968;-50
2023/08/16 23:01:16;;;;;;;;;;;23.70;61.70;;;;;;8514979;27;20280;-48
2023/08/16 23:05:17;;;;;;;;;;;23.70;61.70;;;;;;8498695;27;20119;-51
2023/08/16 23:09:17;;;;;;;;;;;23.70;61.70;;;;;;8498539;27;19916;-49
2023/08/16 23:13:18;;;;;;;;;;;23.70;61.70;;;;;;8498578;27;19916;-50
2023/08/16 23:17:19;;;;;;;;;;;23.70;61.70;;;;;;8498065;27;19923;-49
2023/08/16 23:21:19;;;;;;;;;;;23.70;61.70;;;;;;8498044;27;19923;-49